Time;durP1;ratioP1;P1;durP2;ratioP2;P2;SDS_P1;SDS_P2;PMS_P1;PMS_P2;Temp;Humidity;BMP_temperature;BMP_pressure;BME280_temperature;BME280_humidity;BME280_pressure;Samples;Min_cycle;Max_cycle;Signal;HPM_P1;HPM_P2
2023/12/11 00:02:15;;;;;;;14.17;2.23;;;10.10;99.90;;;;;;5066097;28;20495;-79
2023/12/11 00:04:43;;;;;;;6.23;2.30;;;10.10;99.90;;;;;;5073343;28;20550;-79
2023/12/11 00:07:10;;;;;;;12.80;3.20;;;10.10;99.90;;;;;;5073875;28;20482;-78
2023/12/11 00:09:37;;;;;;;13.10;3.47;;;10.10;99.90;;;;;;5069056;28;20903;-78
2023/12/11 00:12:04;;;;;;;15.17;2.90;;;10.00;99.90;;;;;;5063409;28;20456;-79
2023/12/11 00:14:31;;;;;;;7.33;2.07;;;10.00;99.90;;;;;;5054224;28;20483;-79
2023/12/11 00:16:58;;;;;;;15.17;3.60;;;10.00;99.90;;;;;;5053975;28;20482;-79
2023/12/11 00:19:25;;;;;;;9.87;2.70;;;10.10;99.90;;;;;;5052983;28;20586;-79
2023/12/11 00:21:54;;;;;;;15.60;4.23;;;10.00;99.90;;;;;;5062730;28;20549;-79
2023/12/11 00:24:21;;;;;;;10.73;3.17;;;10.00;99.90;;;;;;5055388;28;20968;-80
2023/12/11 00:26:48;;;;;;;18.77;3.07;;;10.00;99.90;;;;;;5067969;28;20543;-80
2023/12/11 00:29:15;;;;;;;11.33;2.77;;;10.00;99.90;;;;;;5053762;28;20892;-80
2023/12/11 00:31:45;;;;;;;7.80;2.47;;;10.00;99.90;;;;;;5074217;28;20894;-78
2023/12/11 00:34:12;;;;;;;12.13;2.77;;;10.00;99.90;;;;;;5055491;28;21034;-78
2023/12/11 00:36:39;;;;;;;10.93;3.60;;;10.00;99.90;;;;;;5053261;28;21020;-79
2023/12/11 00:39:07;;;;;;;12.23;2.83;;;10.00;99.90;;;;;;5053377;28;20902;-77
2023/12/11 00:41:34;;;;;;;8.40;3.23;;;10.10;99.90;;;;;;5072695;28;20479;-79
2023/12/11 00:44:00;;;;;;;21.40;4.67;;;10.20;99.90;;;;;;5072903;28;20541;-79
2023/12/11 00:46:27;;;;;;;8.10;2.60;;;10.20;99.90;;;;;;5073517;28;20486;-78
2023/12/11 00:48:54;;;;;;;15.47;3.73;;;10.20;99.90;;;;;;5072572;28;20506;-79
2023/12/11 00:51:22;;;;;;;11.30;3.50;;;10.20;99.90;;;;;;5052685;28;20493;-79
2023/12/11 00:53:49;;;;;;;12.53;4.10;;;10.10;99.90;;;;;;5061721;28;20538;-79
2023/12/11 00:56:17;;;;;;;17.03;4.50;;;10.10;99.90;;;;;;5053433;28;20502;-78
2023/12/11 00:58:44;;;;;;;13.37;3.40;;;10.00;99.90;;;;;;5052429;28;20487;-78
2023/12/11 01:01:11;;;;;;;11.37;2.63;;;10.00;99.90;;;;;;5072223;28;20531;-78
2023/12/11 01:03:38;;;;;;;13.50;3.10;;;10.00;99.90;;;;;;5058592;28;20513;-79
2023/12/11 01:06:06;;;;;;;21.10;3.50;;;10.10;99.90;;;;;;5075104;28;20459;-79
2023/12/11 01:08:38;;;;;;;8.10;2.60;;;10.10;99.90;;;;;;5077082;28;20463;-80
2023/12/11 01:11:05;;;;;;;11.70;3.00;;;10.10;99.90;;;;;;5093364;28;20468;-79
2023/12/11 01:13:39;;;;;;;13.83;3.20;;;10.10;99.90;;;;;;5089410;28;20455;-79
2023/12/11 01:16:07;;;;;;;18.13;3.03;;;10.20;99.90;;;;;;5091933;28;20458;-79
2023/12/11 01:18:34;;;;;;;15.03;3.43;;;10.30;99.90;;;;;;5097643;28;20578;-79
2023/12/11 01:21:00;;;;;;;14.33;4.23;;;10.30;99.90;;;;;;5094457;28;20615;-79
2023/12/11 01:23:27;;;;;;;15.63;4.03;;;10.30;99.90;;;;;;5087355;28;20946;-80
2023/12/11 01:25:54;;;;;;;17.00;3.27;;;10.40;99.90;;;;;;5082219;28;20482;-79
2023/12/11 01:28:21;;;;;;;20.60;3.53;;;10.40;99.90;;;;;;5084272;28;20482;-80
2023/12/11 01:30:49;;;;;;;20.40;3.10;;;10.40;99.90;;;;;;5074395;28;20983;-80
2023/12/11 01:33:16;;;;;;;24.50;3.20;;;10.50;99.90;;;;;;5057545;28;20479;-79
2023/12/11 01:35:43;;;;;;;12.27;3.93;;;10.60;99.90;;;;;;5058986;28;20549;-80
2023/12/11 01:38:10;;;;;;;17.80;4.87;;;10.50;99.90;;;;;;5065938;28;20531;-79
2023/12/11 01:40:37;;;;;;;12.13;3.20;;;10.50;99.90;;;;;;5062271;28;21025;-80
2023/12/11 01:43:14;;;;;;;13.67;2.90;;;10.50;99.90;;;;;;5078008;28;20493;-79
2023/12/11 01:45:41;;;;;;;15.40;3.90;;;10.50;99.90;;;;;;5078038;28;20483;-79
2023/12/11 01:48:10;;;;;;;14.57;3.77;;;10.40;99.90;;;;;;5077527;28;20470;-79
2023/12/11 01:50:38;;;;;;;24.03;3.80;;;10.30;99.90;;;;;;5056967;28;20476;-80
2023/12/11 01:53:05;;;;;;;22.37;4.13;;;10.30;99.90;;;;;;5064809;28;20596;-79
2023/12/11 01:55:37;;;;;;;30.40;5.40;;;10.20;99.90;;;;;;5087806;28;20455;-80
2023/12/11 01:58:05;;;;;;;17.20;4.57;;;10.10;99.90;;;;;;5093773;28;20484;-79
2023/12/11 02:00:33;;;;;;;16.23;3.67;;;10.20;99.90;;;;;;5081823;28;20858;-79
2023/12/11 02:03:00;;;;;;;20.27;3.33;;;10.20;99.90;;;;;;5074674;28;20459;-79
2023/12/11 02:05:28;;;;;;;17.90;3.70;;;10.10;99.90;;;;;;5072932;28;20466;-79
2023/12/11 02:07:55;;;;;;;12.30;3.90;;;10.10;99.90;;;;;;5076702;28;20465;-80
2023/12/11 02:10:22;;;;;;;12.40;3.60;;;10.10;99.90;;;;;;5072967;28;20562;-80
2023/12/11 02:12:49;;;;;;;17.00;4.00;;;10.20;99.90;;;;;;5076709;28;20857;-80
2023/12/11 02:15:37;;;;;;;14.87;3.67;;;10.20;99.90;;;;;;5077044;28;20483;-80
2023/12/11 02:18:07;;;;;;;15.87;3.30;;;10.30;99.90;;;;;;5060203;28;20480;-80
2023/12/11 02:20:36;;;;;;;21.47;5.13;;;10.30;99.90;;;;;;5064578;28;20487;-80
2023/12/11 02:23:07;;;;;;;15.20;3.37;;;10.30;99.90;;;;;;5063710;28;20536;-80
2023/12/11 02:25:37;;;;;;;20.77;4.80;;;10.20;99.90;;;;;;5070091;28;20543;-80
2023/12/11 02:28:05;;;;;;;13.53;3.27;;;10.10;99.90;;;;;;5075691;28;20570;-80
2023/12/11 02:30:35;;;;;;;10.93;2.90;;;10.10;99.90;;;;;;5063962;28;20589;-79
2023/12/11 02:33:02;;;;;;;18.80;3.67;;;10.10;99.90;;;;;;5055247;28;20507;-80
2023/12/11 02:35:29;;;;;;;22.07;3.60;;;10.00;99.90;;;;;;5056529;28;20494;-80
2023/12/11 02:37:56;;;;;;;17.43;3.67;;;10.00;99.90;;;;;;5067608;28;20513;-78
2023/12/11 02:40:23;;;;;;;19.20;4.30;;;10.00;99.90;;;;;;5067892;28;20519;-79
2023/12/11 02:42:55;;;;;;;18.07;4.40;;;10.00;99.90;;;;;;5075907;28;20546;-79
2023/12/11 02:45:23;;;;;;;15.37;4.00;;;10.00;99.90;;;;;;5075287;28;20543;-80
2023/12/11 02:47:50;;;;;;;20.97;3.50;;;10.00;99.90;;;;;;5074376;28;20537;-80
2023/12/11 02:50:17;;;;;;;20.67;3.50;;;10.00;99.90;;;;;;5055641;28;20534;-80
2023/12/11 02:52:44;;;;;;;21.67;4.10;;;10.10;99.90;;;;;;5062343;28;20573;-79
2023/12/11 02:55:10;;;;;;;18.93;4.17;;;10.10;99.90;;;;;;5060960;28;20898;-79
2023/12/11 02:57:37;;;;;;;24.33;4.10;;;10.10;99.90;;;;;;5054504;28;20535;-78
2023/12/11 03:00:06;;;;;;;14.23;4.03;;;10.00;99.90;;;;;;5065264;28;20909;-78
2023/12/11 03:02:34;;;;;;;25.07;3.53;;;10.00;99.90;;;;;;5053445;28;21001;-78
2023/12/11 03:05:01;;;;;;;18.90;3.87;;;10.00;99.90;;;;;;5054738;28;20497;-78
2023/12/11 03:07:28;;;;;;;18.53;3.60;;;10.00;99.90;;;;;;5062679;28;20534;-78
2023/12/11 03:09:54;;;;;;;10.30;2.80;;;10.00;99.90;;;;;;5058970;28;21070;-80
2023/12/11 03:12:21;;;;;;;22.40;4.67;;;10.00;99.90;;;;;;5053986;28;20546;-79
2023/12/11 03:14:48;;;;;;;14.30;3.30;;;10.00;99.90;;;;;;5053534;28;20489;-79
2023/12/11 03:17:15;;;;;;;16.50;3.50;;;10.00;99.90;;;;;;5062289;28;20494;-79
2023/12/11 03:19:49;;;;;;;15.80;2.90;;;10.00;99.90;;;;;;5065459;28;20526;-79
2023/12/11 03:22:16;;;;;;;10.23;3.10;;;10.00;99.90;;;;;;5073409;28;20484;-78
2023/12/11 03:24:43;;;;;;;12.33;2.83;;;9.90;99.90;;;;;;5068459;28;20553;-79
2023/12/11 03:27:10;;;;;;;16.50;3.47;;;9.90;99.90;;;;;;5065195;28;20501;-78
2023/12/11 03:29:36;;;;;;;13.30;4.00;;;9.90;99.90;;;;;;5052255;28;20578;-78
2023/12/11 03:32:03;;;;;;;17.67;3.57;;;9.90;99.90;;;;;;5061521;28;20529;-78
2023/12/11 03:34:30;;;;;;;14.00;3.37;;;10.00;99.90;;;;;;5072438;28;20550;-79
2023/12/11 03:36:58;;;;;;;14.70;2.87;;;10.00;99.90;;;;;;5072939;28;20537;-79
2023/12/11 03:39:26;;;;;;;13.00;3.83;;;9.90;99.90;;;;;;5068849;28;20535;-78
2023/12/11 03:41:53;;;;;;;17.10;3.10;;;10.00;99.90;;;;;;5053237;28;20477;-79
2023/12/11 03:44:19;;;;;;;12.93;3.20;;;10.10;99.90;;;;;;5052575;28;20943;-79
2023/12/11 03:46:46;;;;;;;14.73;3.60;;;10.10;99.90;;;;;;5055950;28;20546;-78
2023/12/11 03:49:16;;;;;;;16.23;3.57;;;10.20;99.90;;;;;;5063246;28;20567;-79
2023/12/11 03:51:50;;;;;;;15.53;3.80;;;10.20;99.90;;;;;;5061687;28;20455;-79
2023/12/11 03:54:18;;;;;;;17.07;3.97;;;10.30;99.90;;;;;;5068547;28;20549;-79
2023/12/11 03:56:46;;;;;;;14.20;3.20;;;10.20;99.90;;;;;;5061474;28;20506;-83
2023/12/11 03:59:15;;;;;;;13.57;3.60;;;10.10;99.90;;;;;;5066489;28;20518;-82
2023/12/11 04:01:42;;;;;;;17.00;4.07;;;9.90;99.90;;;;;;5066511;28;20578;-82
2023/12/11 04:04:09;;;;;;;9.87;1.90;;;9.80;99.90;;;;;;5073239;28;20970;-82
2023/12/11 04:06:36;;;;;;;12.97;2.73;;;9.70;99.90;;;;;;5072416;28;20542;-83
2023/12/11 04:09:04;;;;;;;13.27;3.10;;;9.70;99.90;;;;;;5052030;28;20487;-83
2023/12/11 04:11:32;;;;;;;14.47;2.60;;;9.50;99.90;;;;;;5071659;28;20700;-83
2023/12/11 04:13:59;;;;;;;18.97;4.00;;;9.50;99.90;;;;;;5073573;28;20466;-83
2023/12/11 04:16:26;;;;;;;15.27;2.97;;;9.50;99.90;;;;;;5070781;28;20542;-83
2023/12/11 04:18:53;;;;;;;16.57;3.00;;;9.50;99.90;;;;;;5051958;28;20892;-83
2023/12/11 04:21:20;;;;;;;16.67;3.50;;;9.50;99.90;;;;;;5062368;28;21109;-83
2023/12/11 04:23:47;;;;;;;17.90;3.10;;;9.50;99.90;;;;;;5070706;28;20874;-83
2023/12/11 04:26:14;;;;;;;11.93;2.80;;;9.40;99.90;;;;;;5069061;28;20856;-83
2023/12/11 04:28:46;;;;;;;18.40;3.10;;;9.50;99.90;;;;;;5051958;28;20501;-83
2023/12/11 04:31:13;;;;;;;23.80;4.67;;;9.50;99.90;;;;;;5060539;28;20541;-83
2023/12/11 04:33:40;;;;;;;13.63;3.60;;;9.50;99.90;;;;;;5052044;28;20545;-82
2023/12/11 04:36:08;;;;;;;15.43;4.10;;;9.50;99.90;;;;;;5059621;28;20550;-82
2023/12/11 04:38:35;;;;;;;21.70;4.07;;;9.50;99.90;;;;;;5063606;28;20556;-83
2023/12/11 04:41:02;;;;;;;14.70;4.40;;;9.60;99.90;;;;;;5069825;28;20557;-82
2023/12/11 04:43:29;;;;;;;17.43;4.07;;;9.60;99.90;;;;;;5073093;28;20455;-83
2023/12/11 04:45:57;;;;;;;20.50;4.67;;;9.70;99.90;;;;;;5075431;28;20985;-83
2023/12/11 04:48:24;;;;;;;18.87;4.03;;;9.70;99.90;;;;;;5059317;28;20564;-83
2023/12/11 04:50:53;;;;;;;10.20;3.03;;;9.70;99.90;;;;;;5074182;28;20478;-84
2023/12/11 04:53:20;;;;;;;8.30;2.07;;;9.70;99.90;;;;;;5077669;28;20439;-82
2023/12/11 04:55:47;;;;;;;14.40;4.80;;;9.70;99.90;;;;;;5074227;28;20481;-83
2023/12/11 04:58:13;;;;;;;9.73;2.60;;;9.60;99.90;;;;;;5073665;28;20513;-84
2023/12/11 05:00:40;;;;;;;11.07;2.80;;;9.60;99.90;;;;;;5070867;28;20555;-83
2023/12/11 05:03:09;;;;;;;9.43;3.17;;;9.60;99.90;;;;;;5056492;28;20489;-82
2023/12/11 05:05:36;;;;;;;14.80;3.20;;;9.50;99.90;;;;;;5072630;28;20493;-82
2023/12/11 05:08:03;;;;;;;14.50;2.53;;;9.50;99.90;;;;;;5078768;28;20980;-81
2023/12/11 05:10:30;;;;;;;20.03;3.30;;;9.50;99.90;;;;;;5078844;28;20453;-81
2023/12/11 05:12:57;;;;;;;13.67;3.03;;;9.50;99.90;;;;;;5080643;28;20454;-81
2023/12/11 05:15:24;;;;;;;13.73;3.90;;;9.50;99.90;;;;;;5078848;28;20458;-81
2023/12/11 05:17:51;;;;;;;15.63;3.20;;;9.50;99.90;;;;;;5077212;28;20555;-82
2023/12/11 05:20:19;;;;;;;10.97;2.47;;;9.50;99.90;;;;;;5082869;28;20509;-81
2023/12/11 05:22:46;;;;;;;21.43;3.60;;;9.50;99.90;;;;;;5080189;28;20469;-81
2023/12/11 05:25:13;;;;;;;11.17;2.17;;;9.50;99.90;;;;;;5076627;28;20463;-83
2023/12/11 05:27:40;;;;;;;11.27;2.77;;;9.40;99.90;;;;;;5075559;28;20574;-80
2023/12/11 05:30:08;;;;;;;15.50;3.00;;;9.50;99.90;;;;;;5075676;28;20478;-81
2023/12/11 05:32:41;;;;;;;13.53;2.83;;;9.40;99.90;;;;;;5056655;28;20482;-81
2023/12/11 05:35:08;;;;;;;15.83;3.40;;;9.40;99.90;;;;;;5082371;28;20841;-82
2023/12/11 05:37:36;;;;;;;17.70;3.80;;;9.40;99.90;;;;;;5073655;28;20465;-82
2023/12/11 05:40:04;;;;;;;16.80;4.17;;;9.30;99.90;;;;;;5070700;28;20509;-81
2023/12/11 05:42:31;;;;;;;14.47;2.53;;;9.30;99.90;;;;;;5068105;28;20485;-81
2023/12/11 05:44:58;;;;;;;11.33;2.57;;;9.30;99.90;;;;;;5062307;28;20483;-80
2023/12/11 05:47:25;;;;;;;9.73;2.33;;;9.30;99.90;;;;;;5074515;28;20487;-80
2023/12/11 05:49:54;;;;;;;13.97;3.00;;;9.20;99.90;;;;;;5072213;28;20525;-80
2023/12/11 05:52:21;;;;;;;13.60;3.00;;;9.20;99.90;;;;;;5065517;28;20497;-80
2023/12/11 05:54:49;;;;;;;12.10;2.23;;;9.20;99.90;;;;;;5066493;28;20447;-80
2023/12/11 05:57:16;;;;;;;19.37;3.77;;;9.10;99.90;;;;;;5081970;28;20511;-80
2023/12/11 05:59:43;;;;;;;7.57;2.30;;;9.10;99.90;;;;;;5061437;28;20478;-80
2023/12/11 06:02:10;;;;;;;10.03;2.27;;;9.10;99.90;;;;;;5063346;28;20503;-80
2023/12/11 06:04:37;;;;;;;8.90;2.30;;;9.20;99.90;;;;;;5072016;28;20474;-80
2023/12/11 06:07:05;;;;;;;15.00;3.37;;;9.30;99.90;;;;;;5071795;28;20447;-81
2023/12/11 06:09:32;;;;;;;10.63;3.20;;;9.30;99.90;;;;;;5056886;28;20493;-79
2023/12/11 06:12:00;;;;;;;8.07;2.40;;;9.40;99.90;;;;;;5059663;28;20471;-79
2023/12/11 06:14:27;;;;;;;13.00;3.50;;;9.50;99.90;;;;;;5069868;28;20549;-80
2023/12/11 06:16:54;;;;;;;14.70;3.77;;;9.50;99.90;;;;;;5055803;28;20543;-80
2023/12/11 06:19:21;;;;;;;10.47;2.80;;;9.50;99.90;;;;;;5058748;28;20879;-81
2023/12/11 06:21:48;;;;;;;17.93;3.83;;;9.60;99.90;;;;;;5057699;28;20919;-82
2023/12/11 06:24:15;;;;;;;14.63;3.27;;;9.60;99.90;;;;;;5063806;28;21008;-81
2023/12/11 06:26:42;;;;;;;15.80;3.37;;;9.70;99.90;;;;;;5058556;28;20914;-80
2023/12/11 06:29:10;;;;;;;18.47;5.70;;;9.70;99.90;;;;;;5051993;28;20518;-80
2023/12/11 06:31:37;;;;;;;10.63;3.93;;;9.80;99.90;;;;;;5060629;28;20977;-80
2023/12/11 06:34:05;;;;;;;13.17;2.90;;;9.90;99.90;;;;;;5063245;28;20505;-80
2023/12/11 06:36:32;;;;;;;11.20;2.90;;;9.90;99.90;;;;;;5052239;28;20557;-80
2023/12/11 06:38:59;;;;;;;15.03;3.30;;;9.90;99.90;;;;;;5062921;28;20562;-80
2023/12/11 06:41:25;;;;;;;10.80;2.27;;;10.00;99.90;;;;;;5075817;28;20488;-81
2023/12/11 06:43:57;;;;;;;18.37;3.60;;;10.10;99.90;;;;;;5069266;28;20543;-80
2023/12/11 06:46:28;;;;;;;14.00;2.97;;;10.20;99.90;;;;;;5064679;28;20459;-80
2023/12/11 06:48:55;;;;;;;11.07;3.23;;;10.10;99.90;;;;;;5056554;28;20510;-80
2023/12/11 06:51:22;;;;;;;9.83;2.83;;;10.20;99.90;;;;;;5062900;28;20897;-80
2023/12/11 06:53:49;;;;;;;12.57;2.70;;;10.20;99.90;;;;;;5061517;28;20893;-81
2023/12/11 06:56:19;;;;;;;13.13;3.47;;;10.20;99.90;;;;;;5062130;28;20530;-80
2023/12/11 06:58:46;;;;;;;14.07;2.67;;;10.20;99.90;;;;;;5055494;28;20495;-80
2023/12/11 07:01:13;;;;;;;12.47;2.60;;;10.20;99.90;;;;;;5055529;28;20600;-80
2023/12/11 07:03:42;;;;;;;20.40;4.30;;;10.10;99.90;;;;;;5063589;28;20519;-80
2023/12/11 07:06:09;;;;;;;9.33;2.73;;;10.00;99.90;;;;;;5061420;28;20551;-80
2023/12/11 07:08:37;;;;;;;8.60;2.80;;;10.10;99.90;;;;;;5070134;28;20503;-80
2023/12/11 07:11:04;;;;;;;17.67;3.30;;;10.10;99.90;;;;;;5065432;28;20867;-81
2023/12/11 07:13:32;;;;;;;15.93;3.47;;;10.10;99.90;;;;;;5059363;28;21145;-81
2023/12/11 07:15:58;;;;;;;8.90;2.87;;;10.00;99.90;;;;;;5058200;28;20479;-80
2023/12/11 07:18:25;;;;;;;12.07;3.57;;;10.00;99.90;;;;;;5062925;28;20493;-80
2023/12/11 07:20:53;;;;;;;6.97;2.20;;;10.00;99.90;;;;;;5055311;28;21055;-80
2023/12/11 07:23:21;;;;;;;11.57;4.33;;;10.00;99.90;;;;;;5049841;28;20540;-80
2023/12/11 07:25:48;;;;;;;12.23;3.07;;;10.10;99.90;;;;;;5062256;28;20909;-80
2023/12/11 07:28:15;;;;;;;19.23;3.50;;;10.10;99.90;;;;;;5057577;28;20917;-81
2023/12/11 07:30:42;;;;;;;11.43;2.60;;;10.20;99.90;;;;;;5058685;28;21011;-80
2023/12/11 07:33:09;;;;;;;19.73;3.83;;;10.20;99.90;;;;;;5061255;28;20477;-79
2023/12/11 07:35:36;;;;;;;14.67;3.10;;;10.20;99.90;;;;;;5052727;28;20470;-81
2023/12/11 07:38:06;;;;;;;12.50;2.73;;;10.20;99.90;;;;;;5065471;28;20725;-81
2023/12/11 07:40:33;;;;;;;9.77;3.13;;;10.20;99.90;;;;;;5071557;28;20446;-80
2023/12/11 07:42:59;;;;;;;12.30;3.57;;;10.20;99.90;;;;;;5068520;28;20519;-81
2023/12/11 07:45:27;;;;;;;10.17;2.47;;;10.10;99.90;;;;;;5053406;28;20486;-81
2023/12/11 07:47:54;;;;;;;10.47;3.87;;;10.00;99.90;;;;;;5052400;28;20467;-80
2023/12/11 07:50:20;;;;;;;15.77;3.37;;;10.00;99.90;;;;;;5071693;28;20551;-80
2023/12/11 07:52:47;;;;;;;8.47;2.90;;;9.90;99.90;;;;;;5065844;28;20549;-80
2023/12/11 07:55:16;;;;;;;8.10;2.43;;;9.90;99.90;;;;;;5059550;28;20540;-81
2023/12/11 07:57:43;;;;;;;11.07;3.10;;;9.90;99.90;;;;;;5062324;28;20538;-80
2023/12/11 08:00:11;;;;;;;12.23;3.10;;;9.80;99.90;;;;;;5066840;28;20526;-81
2023/12/11 08:02:38;;;;;;;12.47;2.73;;;9.80;99.90;;;;;;5061681;28;20513;-81
2023/12/11 08:05:05;;;;;;;8.87;3.20;;;9.80;99.90;;;;;;5069072;28;20550;-81
2023/12/11 08:07:32;;;;;;;12.10;2.63;;;9.80;99.90;;;;;;5061619;28;20565;-81
2023/12/11 08:09:59;;;;;;;13.40;3.50;;;9.80;99.90;;;;;;5066372;28;20525;-81
2023/12/11 08:12:27;;;;;;;12.33;3.50;;;9.80;99.90;;;;;;5064752;28;20549;-81
2023/12/11 08:14:54;;;;;;;13.50;3.67;;;9.80;99.90;;;;;;5065355;28;20547;-82
2023/12/11 08:17:22;;;;;;;10.47;3.10;;;9.80;99.90;;;;;;5077952;28;20476;-82
2023/12/11 08:19:48;;;;;;;10.23;3.03;;;9.80;99.90;;;;;;5070480;28;20478;-82
2023/12/11 08:22:15;;;;;;;16.13;3.80;;;9.90;99.90;;;;;;5059440;28;20526;-83
2023/12/11 08:24:43;;;;;;;16.73;3.80;;;9.90;99.90;;;;;;5065058;28;20489;-82
2023/12/11 08:27:10;;;;;;;11.37;2.50;;;9.90;99.90;;;;;;5062455;28;20447;-82
2023/12/11 08:29:39;;;;;;;26.43;3.93;;;9.90;99.90;;;;;;5056222;28;20466;-80
2023/12/11 08:32:06;;;;;;;14.03;3.63;;;9.90;99.90;;;;;;5063873;28;20483;-81
2023/12/11 08:34:33;;;;;;;21.63;4.00;;;9.90;99.90;;;;;;5057916;28;20483;-82
2023/12/11 08:37:02;;;;;;;14.43;3.73;;;9.90;99.90;;;;;;5065417;28;20477;-82
2023/12/11 08:39:29;;;;;;;12.80;2.37;;;9.90;99.90;;;;;;5060467;28;20502;-82
2023/12/11 08:41:55;;;;;;;13.23;3.50;;;10.00;99.90;;;;;;5070755;28;20581;-82
2023/12/11 08:44:22;;;;;;;11.40;3.13;;;10.10;99.90;;;;;;5062762;28;20477;-81
2023/12/11 08:46:51;;;;;;;14.67;3.00;;;10.10;99.90;;;;;;5057363;28;20496;-81
2023/12/11 08:49:18;;;;;;;10.23;2.93;;;10.20;99.90;;;;;;5066399;28;20482;-81
2023/12/11 08:51:45;;;;;;;10.03;2.97;;;10.30;99.90;;;;;;5063497;28;20526;-81
2023/12/11 08:54:12;;;;;;;12.07;3.03;;;10.40;99.90;;;;;;5065524;28;21236;-82
2023/12/11 08:56:39;;;;;;;10.07;2.80;;;10.40;99.90;;;;;;5057510;28;20486;-82
2023/12/11 08:59:06;;;;;;;15.50;3.27;;;10.40;99.90;;;;;;5062848;28;20483;-81
2023/12/11 09:01:34;;;;;;;13.37;2.80;;;10.40;99.90;;;;;;5061133;28;20484;-81
2023/12/11 09:04:03;;;;;;;9.73;2.93;;;10.40;99.90;;;;;;5058964;28;20490;-81
2023/12/11 09:06:30;;;;;;;10.30;2.33;;;10.50;99.90;;;;;;5060999;28;20458;-81
2023/12/11 09:08:57;;;;;;;8.77;2.77;;;10.50;99.90;;;;;;5054614;28;20575;-81
2023/12/11 09:11:23;;;;;;;12.00;3.47;;;10.50;99.90;;;;;;5058563;28;20464;-82
2023/12/11 09:13:50;;;;;;;13.20;3.60;;;10.40;99.90;;;;;;5064314;28;20484;-81
2023/12/11 09:16:18;;;;;;;9.20;3.23;;;10.40;99.90;;;;;;5063136;28;20456;-82
2023/12/11 09:18:45;;;;;;;8.40;2.60;;;10.40;99.90;;;;;;5066193;28;20493;-81
2023/12/11 09:21:13;;;;;;;6.60;2.20;;;10.40;99.90;;;;;;5071186;28;20526;-80
2023/12/11 09:23:40;;;;;;;11.43;2.57;;;10.40;99.90;;;;;;5054556;28;20542;-81
2023/12/11 09:26:07;;;;;;;10.70;2.40;;;10.40;99.90;;;;;;5055403;28;20514;-81
2023/12/11 09:28:34;;;;;;;13.30;2.63;;;10.50;99.90;;;;;;5059283;28;20557;-81
2023/12/11 09:31:00;;;;;;;18.67;3.03;;;10.60;99.90;;;;;;5060300;28;20543;-81
2023/12/11 09:33:27;;;;;;;15.93;3.60;;;10.60;99.90;;;;;;5068183;28;20493;-82
2023/12/11 09:35:55;;;;;;;12.87;3.40;;;10.70;99.90;;;;;;5071368;28;20449;-81
2023/12/11 09:38:23;;;;;;;11.30;2.70;;;10.80;99.90;;;;;;5060051;28;20936;-81
2023/12/11 09:40:50;;;;;;;7.00;2.27;;;10.70;99.90;;;;;;5069538;28;20533;-81
2023/12/11 09:43:18;;;;;;;6.47;1.90;;;10.70;99.90;;;;;;5068283;28;20569;-81
2023/12/11 09:45:48;;;;;;;7.97;2.43;;;10.70;99.90;;;;;;5060940;28;20468;-81
2023/12/11 09:48:15;;;;;;;11.40;3.90;;;10.70;99.90;;;;;;5064380;28;20566;-82
2023/12/11 09:50:42;;;;;;;6.90;3.30;;;10.60;99.90;;;;;;5066321;28;20455;-81
2023/12/11 09:53:10;;;;;;;12.87;2.80;;;10.70;99.90;;;;;;5067166;28;20508;-81
2023/12/11 09:55:38;;;;;;;6.47;2.33;;;10.80;99.90;;;;;;5067644;28;20500;-81
2023/12/11 09:58:06;;;;;;;9.03;2.40;;;10.70;99.90;;;;;;5064226;28;20522;-80
2023/12/11 10:00:34;;;;;;;11.10;2.83;;;10.70;99.90;;;;;;5059459;28;20451;-82
2023/12/11 10:03:05;;;;;;;10.00;2.40;;;10.70;99.90;;;;;;5060969;28;20876;-81
2023/12/11 10:05:35;;;;;;;7.50;2.27;;;10.90;99.90;;;;;;5067092;28;20463;-81
2023/12/11 10:08:03;;;;;;;15.13;2.80;;;10.90;99.90;;;;;;5072789;28;20457;-82
2023/12/11 10:10:32;;;;;;;10.50;3.00;;;10.90;99.90;;;;;;5060301;28;20950;-82
2023/12/11 10:13:01;;;;;;;7.30;3.00;;;10.90;99.90;;;;;;5066581;28;20460;-81
2023/12/11 10:15:30;;;;;;;9.10;2.67;;;10.90;99.90;;;;;;5063907;28;21025;-81
2023/12/11 10:18:05;;;;;;;8.17;3.20;;;11.00;99.90;;;;;;5063020;28;20456;-81
2023/12/11 10:20:33;;;;;;;13.27;4.73;;;11.00;99.90;;;;;;5058497;28;20466;-81
2023/12/11 10:23:14;;;;;;;7.40;2.33;;;11.00;99.90;;;;;;5065415;28;20510;-82
2023/12/11 10:25:42;;;;;;;11.40;2.40;;;11.00;99.90;;;;;;5058433;28;20478;-81
2023/12/11 10:28:13;;;;;;;5.03;2.03;;;11.00;99.90;;;;;;5056435;28;20909;-81
2023/12/11 10:30:54;;;;;;;11.07;2.40;;;11.00;99.90;;;;;;5058442;28;20447;-82
2023/12/11 10:33:21;;;;;;;9.07;3.20;;;11.10;99.90;;;;;;5061413;28;20488;-80
2023/12/11 10:35:49;;;;;;;12.13;2.90;;;11.10;99.90;;;;;;5071790;28;20452;-81
2023/12/11 10:38:22;;;;;;;5.63;1.77;;;11.10;99.90;;;;;;5066297;28;20506;-82
2023/12/11 10:40:50;;;;;;;10.53;1.90;;;11.10;99.90;;;;;;5055237;28;20469;-82
2023/12/11 10:43:18;;;;;;;10.20;2.10;;;11.00;99.90;;;;;;5064079;28;20498;-81
2023/12/11 10:45:45;;;;;;;4.77;2.10;;;11.10;99.90;;;;;;5073298;28;20459;-82
2023/12/11 10:48:13;;;;;;;10.10;2.50;;;11.10;99.90;;;;;;5067181;28;20508;-82
2023/12/11 10:50:40;;;;;;;9.43;2.87;;;11.00;99.90;;;;;;5070221;28;20565;-83
2023/12/11 10:53:08;;;;;;;12.00;2.80;;;10.90;99.90;;;;;;5064806;28;20479;-82
2023/12/11 10:55:37;;;;;;;8.57;2.03;;;10.90;99.90;;;;;;5062963;28;20461;-82
2023/12/11 10:58:06;;;;;;;7.40;2.23;;;10.80;99.90;;;;;;5064256;28;20826;-84
2023/12/11 11:00:35;;;;;;;7.97;2.00;;;10.70;99.90;;;;;;5065275;28;20462;-81
2023/12/11 11:03:06;;;;;;;9.87;3.17;;;10.60;99.90;;;;;;5066919;28;20983;-81
2023/12/11 11:05:33;;;;;;;4.17;1.83;;;10.40;99.90;;;;;;5055456;28;20933;-82
2023/12/11 11:08:11;;;;;;;7.77;2.57;;;10.30;99.90;;;;;;5068949;28;20460;-82
2023/12/11 11:10:47;;;;;;;7.93;2.33;;;10.20;99.90;;;;;;5062604;28;20457;-82
2023/12/11 11:13:21;;;;;;;13.33;3.73;;;10.20;99.90;;;;;;5060498;28;20452;-82
2023/12/11 11:15:53;;;;;;;7.13;2.60;;;10.20;99.90;;;;;;5069790;28;20538;-82
2023/12/11 11:18:20;;;;;;;10.47;2.37;;;10.20;99.90;;;;;;5066458;28;21020;-80
2023/12/11 11:21:08;;;;;;;7.30;2.07;;;10.20;99.90;;;;;;5060518;28;20526;-81
2023/12/11 11:23:42;;;;;;;8.20;2.27;;;10.00;99.90;;;;;;5059583;28;20551;-81
2023/12/11 11:26:31;;;;;;;7.07;2.80;;;9.90;99.90;;;;;;5059532;28;20461;-83
2023/12/11 11:28:58;;;;;;;5.43;2.37;;;9.90;99.90;;;;;;5057779;28;20471;-81
2023/12/11 11:31:49;;;;;;;11.40;3.10;;;9.90;99.90;;;;;;5066516;28;20454;-81
2023/12/11 11:34:15;;;;;;;6.57;2.30;;;9.90;99.90;;;;;;5063680;28;20458;-81
2023/12/11 11:36:47;;;;;;;10.57;4.10;;;9.90;99.90;;;;;;5068568;28;20458;-81
2023/12/11 11:39:14;;;;;;;4.57;2.23;;;9.90;99.90;;;;;;5053828;28;20535;-82
2023/12/11 11:41:43;;;;;;;8.53;3.40;;;10.00;99.90;;;;;;5055876;28;20498;-81
2023/12/11 11:44:11;;;;;;;8.53;3.40;;;10.10;99.90;;;;;;5062527;28;20490;-80
2023/12/11 11:46:52;;;;;;;6.03;2.40;;;10.10;99.90;;;;;;5060256;28;20455;-79
2023/12/11 11:49:33;;;;;;;7.83;2.13;;;10.20;99.90;;;;;;5053875;28;20553;-79
2023/12/11 11:52:03;;;;;;;5.67;1.83;;;10.10;99.90;;;;;;5068151;28;20744;-80
2023/12/11 11:54:32;;;;;;;4.60;1.63;;;10.00;99.90;;;;;;5066918;28;20456;-82
2023/12/11 11:56:59;;;;;;;6.60;2.47;;;10.10;99.90;;;;;;5078630;28;20529;-81
2023/12/11 11:59:26;;;;;;;5.63;2.30;;;10.10;99.90;;;;;;5072510;28;20543;-80
2023/12/11 12:01:56;;;;;;;6.00;2.60;;;10.10;99.90;;;;;;5058572;28;20509;-80
2023/12/11 12:04:27;;;;;;;9.17;2.50;;;10.10;99.90;;;;;;5066891;28;20465;-81
2023/12/11 12:06:55;;;;;;;7.20;2.40;;;10.00;99.90;;;;;;5066763;28;20482;-82
2023/12/11 12:09:22;;;;;;;5.20;2.33;;;9.90;99.90;;;;;;5062425;28;20645;-81
2023/12/11 12:11:49;;;;;;;9.83;2.03;;;10.00;99.90;;;;;;5061475;28;20970;-81
2023/12/11 12:14:16;;;;;;;4.27;2.23;;;10.00;99.90;;;;;;5061603;28;20455;-81
2023/12/11 12:16:43;;;;;;;5.67;2.07;;;10.00;99.90;;;;;;5058573;28;20533;-80
2023/12/11 12:19:11;;;;;;;4.33;2.57;;;10.20;99.90;;;;;;5061007;28;20532;-81
2023/12/11 12:21:47;;;;;;;6.50;2.23;;;10.50;99.90;;;;;;5064985;28;20514;-81
2023/12/11 12:24:24;;;;;;;5.93;2.33;;;10.60;99.90;;;;;;5056217;28;20486;-80
2023/12/11 12:26:55;;;;;;;5.97;2.90;;;10.50;99.90;;;;;;5060627;28;20549;-79
2023/12/11 12:29:35;;;;;;;5.40;2.33;;;10.50;99.90;;;;;;5065797;28;20482;-79
2023/12/11 12:32:08;;;;;;;5.70;2.00;;;10.50;99.90;;;;;;5058667;28;20469;-81
2023/12/11 12:34:39;;;;;;;5.77;2.47;;;10.60;99.90;;;;;;5056674;28;20455;-81
2023/12/11 12:37:17;;;;;;;5.33;2.30;;;10.70;99.90;;;;;;5066064;28;20451;-80
2023/12/11 12:39:44;;;;;;;3.77;2.10;;;10.70;99.90;;;;;;5057333;28;20897;-80
2023/12/11 12:42:15;;;;;;;5.67;2.00;;;10.90;99.90;;;;;;5058025;28;20458;-81
2023/12/11 12:44:44;;;;;;;6.10;2.20;;;10.90;99.90;;;;;;5055027;28;20443;-81
2023/12/11 12:48:00;;;;;;;2.73;2.10;;;10.80;99.90;;;;;;5064441;28;20450;-79
2023/12/11 12:50:28;;;;;;;6.20;2.10;;;10.90;99.90;;;;;;5041634;28;20455;-81